Viola, Delaware
Current Conditions -  °F | °C
As of 10:58 AM on Tuesday 21 Oct 2014 (Local Time) from KDOV Reporting Station
Scattered Clouds Scattered Clouds  
Wind Chill: 62°   Ceiling: Unl
Heat Index: 62°   Visibility: 10mi
Dew Point: 54°   Wind: 5mph
Humidity: 75%   Direction: 240°WSW
Pressure: 29.85"   Gusts: NA
Location:  39.04°N, 75.57°W
Report Text: KDOV 211458Z AUTO 24004KT 10SM SCT100 17/12 A2985 RMK AO2 SLP111 T01680123 50002
Loading
Personal Weather Stations






























Interactive Weather Map
Tropical Storm Tracking
New forecast layout! Learn more

10-Day Weather Forecast

Advertisements
Track Severe Weather on mobile